createdAt,value
2023-02-18T00:01:23.685Z,95.50
2023-02-18T00:03:50.943Z,95.00
2023-02-18T00:06:26.874Z,95.10
2023-02-18T00:08:54.019Z,95.00
2023-02-18T00:11:22.394Z,95.20
2023-02-18T00:13:58.680Z,95.30
2023-02-18T00:16:26.287Z,95.40
2023-02-18T00:18:58.028Z,95.50
2023-02-18T00:21:24.947Z,95.70
2023-02-18T00:23:51.802Z,95.40
2023-02-18T00:26:19.937Z,95.70
2023-02-18T00:28:48.478Z,95.50
2023-02-18T00:31:18.810Z,95.80
2023-02-18T00:33:45.543Z,95.80
2023-02-18T00:36:15.005Z,96.00
2023-02-18T00:39:01.776Z,95.90
2023-02-18T00:41:29.617Z,95.90
2023-02-18T00:43:56.590Z,95.90
2023-02-18T00:46:25.131Z,96.00
2023-02-18T00:48:51.749Z,95.80
2023-02-18T00:51:18.803Z,96.00
2023-02-18T00:53:45.440Z,96.00
2023-02-18T00:56:12.347Z,96.10
2023-02-18T00:58:39.558Z,96.30
2023-02-18T01:01:07.883Z,96.10
2023-02-18T01:03:35.476Z,96.20
2023-02-18T01:06:02.409Z,96.20
2023-02-18T01:08:29.273Z,96.50
2023-02-18T01:10:57.993Z,96.60
2023-02-18T01:13:25.809Z,96.30
2023-02-18T01:15:53.133Z,95.90
2023-02-18T01:18:20.440Z,95.80
2023-02-18T01:20:47.434Z,96.20
2023-02-18T01:23:14.808Z,96.80
2023-02-18T01:25:42.011Z,97.10
2023-02-18T01:28:11.291Z,96.80
2023-02-18T01:30:37.998Z,96.90
2023-02-18T01:33:05.094Z,96.70
2023-02-18T01:35:31.731Z,97.20
2023-02-18T01:37:58.502Z,97.20
2023-02-18T01:40:28.312Z,97.20
2023-02-18T01:42:55.097Z,97.30
2023-02-18T01:45:52.634Z,97.30
2023-02-18T01:48:32.994Z,97.30
2023-02-18T01:51:05.390Z,96.90
2023-02-18T01:53:49.976Z,96.90
2023-02-18T01:56:24.394Z,97.00
2023-02-18T01:58:54.300Z,97.20
2023-02-18T02:01:21.538Z,97.70
2023-02-18T02:03:48.161Z,97.70
2023-02-18T02:06:19.134Z,97.70
2023-02-18T02:08:49.020Z,97.60
2023-02-18T02:11:26.927Z,97.70
2023-02-18T02:13:59.525Z,97.80
2023-02-18T02:16:48.605Z,97.70
2023-02-18T02:19:39.982Z,97.70
2023-02-18T02:22:09.722Z,97.60
2023-02-18T02:25:08.773Z,97.60
2023-02-18T02:28:17.133Z,97.60
2023-02-18T02:31:27.946Z,98.10
2023-02-18T02:34:13.311Z,98.30
2023-02-18T02:37:08.979Z,98.30
2023-02-18T02:40:06.843Z,98.20
2023-02-18T02:43:00.067Z,98.30
2023-02-18T02:45:38.938Z,98.30
2023-02-18T02:48:23.376Z,98.70
2023-02-18T02:51:03.408Z,98.80
2023-02-18T02:53:33.673Z,98.70
2023-02-18T02:56:00.316Z,98.40
2023-02-18T02:58:26.999Z,98.50
2023-02-18T03:01:32.803Z,98.50
2023-02-18T03:04:08.095Z,98.40
2023-02-18T03:07:02.330Z,98.90
2023-02-18T03:09:53.343Z,99.10
2023-02-18T03:12:46.341Z,99.40
2023-02-18T03:15:37.451Z,99.50
2023-02-18T03:18:38.102Z,99.60
2023-02-18T03:21:16.140Z,99.90
2023-02-18T03:23:52.185Z,99.90
2023-02-18T03:26:20.897Z,99.90
2023-02-18T03:28:51.277Z,99.90
2023-02-18T03:31:21.910Z,99.90
2023-02-18T03:34:05.402Z,99.70
2023-02-18T03:36:34.542Z,99.70
2023-02-18T03:39:23.200Z,99.90
2023-02-18T03:41:49.866Z,99.90
2023-02-18T03:44:16.515Z,99.90
2023-02-18T03:46:45.052Z,99.70
2023-02-18T03:49:13.079Z,99.90
2023-02-18T03:51:40.098Z,99.50
2023-02-18T03:54:06.802Z,99.60
2023-02-18T03:56:34.564Z,99.80
2023-02-18T03:59:01.313Z,99.60
2023-02-18T04:01:28.111Z,99.30
2023-02-18T04:03:55.484Z,99.20
2023-02-18T04:06:25.210Z,99.50
2023-02-18T04:08:51.858Z,99.40
2023-02-18T04:11:18.489Z,99.50
2023-02-18T04:13:45.162Z,99.90
2023-02-18T04:16:11.825Z,99.90
2023-02-18T04:18:38.535Z,99.90
2023-02-18T04:21:05.501Z,99.90
2023-02-18T04:23:32.164Z,99.90
2023-02-18T04:25:58.849Z,99.90
2023-02-18T04:28:25.516Z,99.90
2023-02-18T04:30:52.307Z,99.90
2023-02-18T04:33:18.996Z,99.90
2023-02-18T04:35:46.016Z,99.90
2023-02-18T04:38:15.016Z,99.90
2023-02-18T04:40:41.682Z,99.90
2023-02-18T04:43:08.459Z,99.90
2023-02-18T04:45:35.189Z,99.90
2023-02-18T04:48:01.843Z,99.90
2023-02-18T04:50:28.743Z,99.90
2023-02-18T04:52:55.412Z,99.90
2023-02-18T04:55:22.057Z,99.90
2023-02-18T04:57:48.662Z,99.90
2023-02-18T05:00:18.152Z,99.80
2023-02-18T05:02:45.755Z,99.90
2023-02-18T05:05:14.071Z,99.90
2023-02-18T05:07:42.274Z,99.90
2023-02-18T05:10:11.182Z,99.90
2023-02-18T05:12:38.087Z,99.90
2023-02-18T05:15:05.162Z,99.90
2023-02-18T05:17:32.076Z,99.90
2023-02-18T05:19:58.678Z,99.90
2023-02-18T05:22:25.414Z,99.90
2023-02-18T05:24:51.994Z,99.90
2023-02-18T05:27:18.651Z,99.90
2023-02-18T05:29:45.315Z,99.90
2023-02-18T05:32:11.950Z,99.90
2023-02-18T05:34:38.627Z,99.90
2023-02-18T05:37:05.308Z,99.90
2023-02-18T05:39:32.003Z,99.90
2023-02-18T05:41:58.649Z,99.90
2023-02-18T05:44:31.182Z,99.90
2023-02-18T05:47:11.261Z,99.90
2023-02-18T05:49:38.923Z,99.90
2023-02-18T05:52:06.298Z,99.90
2023-02-18T05:54:34.375Z,99.90
2023-02-18T05:57:01.104Z,99.90
2023-02-18T05:59:27.886Z,99.90
2023-02-18T06:01:54.543Z,99.90
2023-02-18T06:04:21.418Z,99.90
2023-02-18T06:06:48.264Z,99.90
2023-02-18T06:09:15.165Z,99.90
2023-02-18T06:11:42.120Z,99.90
2023-02-18T06:14:08.975Z,99.90
2023-02-18T06:16:35.618Z,99.90
2023-02-18T06:19:02.208Z,99.90
2023-02-18T06:21:28.873Z,99.80
2023-02-18T06:23:55.541Z,99.90
2023-02-18T06:26:22.164Z,99.80
2023-02-18T06:28:48.861Z,99.80
2023-02-18T06:31:15.553Z,99.90
2023-02-18T06:33:42.252Z,99.90
2023-02-18T06:36:12.028Z,99.70
2023-02-18T06:38:40.912Z,99.70
2023-02-18T06:41:07.582Z,99.80
2023-02-18T06:43:34.791Z,99.60
2023-02-18T06:46:01.482Z,99.90
2023-02-18T06:48:28.367Z,99.60
2023-02-18T06:50:55.110Z,99.50
2023-02-18T06:53:21.938Z,99.20
2023-02-18T06:55:48.772Z,99.60
2023-02-18T06:58:15.577Z,99.60
2023-02-18T07:00:42.796Z,99.90
2023-02-18T07:03:12.674Z,99.50
2023-02-18T07:05:39.355Z,99.90
2023-02-18T07:08:06.097Z,99.80
2023-02-18T07:10:32.996Z,99.40
2023-02-18T07:12:59.616Z,99.10
2023-02-18T07:15:27.835Z,99.30
2023-02-18T07:17:54.975Z,99.00
2023-02-18T07:20:22.462Z,99.10
2023-02-18T07:22:49.944Z,99.00
2023-02-18T07:25:16.760Z,98.70
2023-02-18T07:27:43.521Z,99.50
2023-02-18T07:30:11.057Z,99.80
2023-02-18T07:32:37.753Z,99.70
2023-02-18T07:35:05.861Z,99.20
2023-02-18T07:37:32.534Z,99.00
2023-02-18T07:39:59.195Z,98.60
2023-02-18T07:42:25.957Z,98.80
2023-02-18T07:44:52.582Z,98.40
2023-02-18T07:47:19.638Z,98.30
2023-02-18T07:49:46.988Z,98.40
2023-02-18T07:52:14.789Z,98.40
2023-02-18T07:54:41.695Z,98.00
2023-02-18T07:57:08.426Z,96.70
2023-02-18T07:59:35.191Z,97.30
2023-02-18T08:02:02.999Z,97.60
2023-02-18T08:04:29.737Z,97.20
2023-02-18T08:06:56.549Z,97.00
2023-02-18T08:09:23.386Z,97.20
2023-02-18T08:11:50.399Z,96.10
2023-02-18T08:14:17.090Z,96.60
2023-02-18T08:16:43.879Z,96.70
2023-02-18T08:19:10.589Z,97.10
2023-02-18T08:21:37.372Z,96.90
2023-02-18T08:24:04.210Z,96.30
2023-02-18T08:26:30.857Z,96.60
2023-02-18T08:28:57.518Z,97.00
2023-02-18T08:31:27.509Z,96.10
2023-02-18T08:33:55.792Z,96.40
2023-02-18T08:36:23.404Z,96.10
2023-02-18T08:38:50.158Z,96.40
2023-02-18T08:41:18.811Z,96.70
2023-02-18T08:43:46.478Z,96.90
2023-02-18T08:46:16.493Z,96.10
2023-02-18T08:48:52.029Z,96.50
2023-02-18T08:51:20.950Z,96.00
2023-02-18T08:53:48.219Z,96.40
2023-02-18T08:56:17.110Z,95.90
2023-02-18T08:58:44.190Z,95.70
2023-02-18T09:01:12.735Z,96.30
2023-02-18T09:03:39.930Z,96.20
2023-02-18T09:06:06.832Z,95.70
2023-02-18T09:08:33.797Z,95.60
2023-02-18T09:11:02.248Z,95.90
2023-02-18T09:13:28.953Z,95.20
2023-02-18T09:16:07.637Z,96.20
2023-02-18T09:18:37.966Z,95.90
2023-02-18T09:21:06.898Z,96.00
2023-02-18T09:23:34.257Z,94.90
2023-02-18T09:26:04.235Z,95.60
2023-02-18T09:28:30.853Z,95.30
2023-02-18T09:30:57.558Z,95.30
2023-02-18T09:33:24.328Z,95.30
2023-02-18T09:35:50.969Z,94.30
2023-02-18T09:38:17.794Z,94.70
2023-02-18T09:40:49.129Z,94.70
2023-02-18T09:43:23.051Z,94.20
2023-02-18T09:45:51.951Z,94.50
2023-02-18T09:48:18.603Z,94.30
2023-02-18T09:50:52.010Z,94.10
2023-02-18T09:53:18.857Z,93.80
2023-02-18T09:55:46.304Z,93.30
2023-02-18T09:58:21.061Z,93.30
2023-02-18T10:00:55.339Z,92.90
2023-02-18T10:03:25.086Z,92.90
2023-02-18T10:06:02.077Z,93.00
2023-02-18T10:08:55.542Z,92.30
2023-02-18T10:11:30.218Z,92.60
2023-02-18T10:13:58.479Z,92.40
2023-02-18T10:16:25.611Z,92.30
2023-02-18T10:18:57.012Z,92.60
2023-02-18T10:21:36.071Z,91.90
2023-02-18T10:24:02.645Z,92.30
2023-02-18T10:26:33.458Z,92.20
2023-02-18T10:29:00.476Z,91.50
2023-02-18T10:31:37.228Z,91.60
2023-02-18T10:34:24.527Z,91.40
2023-02-18T10:36:56.268Z,91.90
2023-02-18T10:39:57.794Z,91.10
2023-02-18T10:42:34.976Z,91.20
2023-02-18T10:45:19.230Z,91.50
2023-02-18T10:48:18.700Z,91.20
2023-02-18T10:50:46.164Z,91.80
2023-02-18T10:53:22.092Z,91.40
2023-02-18T10:55:54.404Z,90.80
2023-02-18T10:58:31.319Z,91.10
2023-02-18T11:01:00.032Z,90.90
2023-02-18T11:03:40.061Z,90.50
2023-02-18T11:06:16.080Z,91.10
2023-02-18T11:08:45.436Z,91.20
2023-02-18T11:11:23.987Z,90.90
2023-02-18T11:13:56.442Z,91.00
2023-02-18T11:16:24.689Z,89.60
2023-02-18T11:18:51.525Z,89.90
2023-02-18T11:21:32.026Z,90.50
2023-02-18T11:24:10.372Z,90.20
2023-02-18T11:26:39.597Z,90.50
2023-02-18T11:29:24.459Z,90.50
2023-02-18T11:31:55.513Z,90.40
2023-02-18T11:34:32.764Z,90.20
2023-02-18T11:37:12.035Z,91.00
2023-02-18T11:39:44.594Z,91.10
2023-02-18T11:42:15.104Z,91.40
2023-02-18T11:44:49.658Z,91.30
2023-02-18T11:47:16.384Z,91.40
2023-02-18T11:49:44.925Z,91.30
2023-02-18T11:52:34.225Z,90.70
2023-02-18T11:55:18.593Z,91.10
2023-02-18T11:57:56.523Z,91.10
2023-02-18T12:00:43.104Z,90.90
2023-02-18T12:03:28.788Z,90.50
2023-02-18T12:06:00.052Z,91.00
2023-02-18T12:08:35.327Z,90.60
2023-02-18T12:11:12.876Z,89.90
2023-02-18T12:13:53.403Z,90.40
2023-02-18T12:16:47.897Z,90.30
2023-02-18T12:19:39.302Z,90.20
2023-02-18T12:22:14.796Z,90.30
2023-02-18T12:25:04.002Z,90.50
2023-02-18T12:27:48.433Z,89.80
2023-02-18T12:30:39.731Z,90.40
2023-02-18T12:33:19.952Z,90.30
2023-02-18T12:36:16.340Z,89.90
2023-02-18T12:39:02.749Z,90.00
2023-02-18T12:41:36.785Z,90.00
2023-02-18T12:44:31.468Z,89.30
2023-02-18T12:47:13.864Z,90.20
2023-02-18T12:49:48.188Z,89.90
2023-02-18T12:52:17.678Z,88.80
2023-02-18T12:55:15.061Z,89.30
2023-02-18T12:57:54.618Z,87.00
2023-02-18T13:01:10.222Z,89.30
2023-02-18T13:04:10.826Z,87.10
2023-02-18T13:07:33.754Z,88.10
2023-02-18T13:10:19.078Z,88.70
2023-02-18T13:12:55.648Z,88.50
2023-02-18T13:15:25.254Z,88.60
2023-02-18T13:17:57.930Z,87.80
2023-02-18T13:20:36.710Z,87.90
2023-02-18T13:23:04.441Z,87.40
2023-02-18T13:25:37.379Z,88.70
2023-02-18T13:28:40.354Z,87.80
2023-02-18T13:31:22.327Z,88.50
2023-02-18T13:33:52.065Z,88.50
2023-02-18T13:36:48.309Z,86.90
2023-02-18T13:39:20.514Z,87.90
2023-02-18T13:41:49.322Z,87.10
2023-02-18T13:44:18.621Z,87.50
2023-02-18T13:46:54.681Z,87.30
2023-02-18T13:49:33.669Z,87.30
2023-02-18T13:52:02.274Z,87.30
2023-02-18T13:54:34.340Z,86.60
2023-02-18T13:57:13.513Z,86.80
2023-02-18T13:59:49.683Z,87.10
2023-02-18T14:02:25.846Z,87.20
2023-02-18T14:04:56.724Z,86.60
2023-02-18T14:07:29.285Z,86.90
2023-02-18T14:09:58.057Z,87.10
2023-02-18T14:12:38.334Z,86.00
2023-02-18T14:15:20.206Z,85.60
2023-02-18T14:17:50.381Z,85.60
2023-02-18T14:20:19.789Z,86.10
2023-02-18T14:22:51.587Z,85.80
2023-02-18T14:25:21.269Z,86.20
2023-02-18T14:28:21.880Z,86.20
2023-02-18T14:30:49.081Z,85.80
2023-02-18T14:33:16.401Z,85.50
2023-02-18T14:35:55.882Z,86.10
2023-02-18T14:39:07.297Z,86.20
2023-02-18T14:41:56.389Z,85.10
2023-02-18T14:44:41.349Z,85.90
2023-02-18T14:47:48.172Z,85.00
2023-02-18T14:50:17.791Z,84.90
2023-02-18T14:52:57.779Z,85.20
2023-02-18T14:55:28.713Z,85.00
2023-02-18T14:58:25.514Z,85.70
2023-02-18T15:00:52.153Z,85.30
2023-02-18T15:03:22.330Z,85.70
2023-02-18T15:05:53.291Z,85.90
2023-02-18T15:08:25.309Z,86.20
2023-02-18T15:11:07.434Z,86.20
2023-02-18T15:13:41.640Z,85.90
2023-02-18T15:16:13.877Z,86.30
2023-02-18T15:18:44.358Z,86.60
2023-02-18T15:21:29.099Z,86.20
2023-02-18T15:24:00.327Z,85.90
2023-02-18T15:26:27.103Z,86.00
2023-02-18T15:29:05.854Z,86.40
2023-02-18T15:31:38.934Z,86.90
2023-02-18T15:34:28.969Z,86.70
2023-02-18T15:37:15.977Z,86.90
2023-02-18T15:39:43.813Z,87.80
2023-02-18T15:42:32.701Z,86.80
2023-02-18T15:45:25.226Z,86.80
2023-02-18T15:47:55.272Z,87.30
2023-02-18T15:50:26.183Z,87.30
2023-02-18T15:52:55.471Z,87.00
2023-02-18T15:55:38.475Z,87.10
2023-02-18T15:58:15.669Z,87.30
2023-02-18T16:00:48.947Z,87.60
2023-02-18T16:03:21.402Z,87.70
2023-02-18T16:05:48.520Z,87.70
2023-02-18T16:08:25.616Z,87.90
2023-02-18T16:11:15.015Z,87.80
2023-02-18T16:13:47.742Z,88.00
2023-02-18T16:16:30.134Z,88.20
2023-02-18T16:18:57.068Z,87.80
2023-02-18T16:21:37.971Z,88.10
2023-02-18T16:24:27.084Z,88.20
2023-02-18T16:26:57.020Z,87.90
2023-02-18T16:29:35.798Z,88.20
2023-02-18T16:32:03.579Z,88.80
2023-02-18T16:34:30.273Z,88.50
2023-02-18T16:37:15.629Z,88.60
2023-02-18T16:39:42.429Z,88.20
2023-02-18T16:42:11.390Z,88.20
2023-02-18T16:44:38.790Z,88.50
2023-02-18T16:47:06.470Z,88.50
2023-02-18T16:49:34.363Z,88.40
2023-02-18T16:52:07.645Z,88.60
2023-02-18T16:54:34.686Z,88.90
2023-02-18T16:57:01.338Z,89.40
2023-02-18T16:59:27.980Z,89.40
2023-02-18T17:01:55.942Z,90.30
2023-02-18T17:04:23.469Z,89.50
2023-02-18T17:06:50.149Z,90.20
2023-02-18T17:09:17.802Z,89.80
2023-02-18T17:11:45.996Z,89.80
2023-02-18T17:14:19.894Z,89.80
2023-02-18T17:16:48.420Z,89.90
2023-02-18T17:19:16.121Z,89.70
2023-02-18T17:21:43.414Z,90.00
2023-02-18T17:24:15.037Z,89.90
2023-02-18T17:26:42.497Z,89.70
2023-02-18T17:29:09.277Z,90.00
2023-02-18T17:31:41.347Z,90.20
2023-02-18T17:34:12.267Z,90.20
2023-02-18T17:36:45.143Z,90.50
2023-02-18T17:39:14.319Z,90.60
2023-02-18T17:41:41.802Z,90.80
2023-02-18T17:44:20.814Z,90.60
2023-02-18T17:46:49.719Z,90.60
2023-02-18T17:49:19.140Z,90.60
2023-02-18T17:51:47.347Z,90.60
2023-02-18T17:54:19.880Z,90.60
2023-02-18T17:56:46.938Z,90.60
2023-02-18T17:59:13.754Z,90.60
2023-02-18T18:01:40.928Z,90.70
2023-02-18T18:04:15.937Z,91.10
2023-02-18T18:06:43.477Z,91.20
2023-02-18T18:09:10.124Z,91.10
2023-02-18T18:11:37.590Z,91.80
2023-02-18T18:14:04.601Z,92.10
2023-02-18T18:16:32.365Z,92.50
2023-02-18T18:18:59.076Z,92.40
2023-02-18T18:21:32.506Z,92.90
2023-02-18T18:23:59.292Z,93.10
2023-02-18T18:26:26.011Z,93.00
2023-02-18T18:28:53.398Z,93.20
2023-02-18T18:31:20.913Z,93.30
2023-02-18T18:33:53.048Z,93.40
2023-02-18T18:36:21.715Z,93.10
2023-02-18T18:38:48.447Z,93.20
2023-02-18T18:41:18.872Z,93.30
2023-02-18T18:43:46.043Z,93.30
2023-02-18T18:46:12.877Z,93.80
2023-02-18T18:48:39.670Z,93.60
2023-02-18T18:51:06.562Z,93.50
2023-02-18T18:53:35.620Z,93.70
2023-02-18T18:56:05.046Z,94.30
2023-02-18T18:58:32.085Z,93.90
2023-02-18T19:01:01.564Z,94.00
2023-02-18T19:03:29.757Z,94.10
2023-02-18T19:05:57.160Z,94.20
2023-02-18T19:08:24.423Z,93.90
2023-02-18T19:10:53.938Z,94.00
2023-02-18T19:13:21.981Z,94.00
2023-02-18T19:15:50.555Z,94.30
2023-02-18T19:18:19.118Z,94.30
2023-02-18T19:20:47.386Z,94.10
2023-02-18T19:23:14.441Z,94.20
2023-02-18T19:25:42.177Z,94.30
2023-02-18T19:28:13.535Z,94.50
2023-02-18T19:30:44.161Z,94.50
2023-02-18T19:33:13.079Z,94.30
2023-02-18T19:35:41.344Z,94.30
2023-02-18T19:38:10.323Z,94.20
2023-02-18T19:40:37.958Z,94.40
2023-02-18T19:43:05.456Z,94.60
2023-02-18T19:45:33.136Z,95.10
2023-02-18T19:48:00.782Z,95.00
2023-02-18T19:50:31.176Z,95.00
2023-02-18T19:52:58.937Z,94.90
2023-02-18T19:55:26.147Z,95.20
2023-02-18T19:57:52.801Z,95.20
2023-02-18T20:00:22.432Z,95.30
2023-02-18T20:02:50.078Z,95.10
2023-02-18T20:05:17.843Z,95.30
2023-02-18T20:07:46.685Z,94.80
2023-02-18T20:10:16.221Z,94.90
2023-02-18T20:12:43.272Z,95.00
2023-02-18T20:15:10.228Z,95.10
2023-02-18T20:17:38.399Z,94.90
2023-02-18T20:20:05.921Z,95.50
2023-02-18T20:22:32.599Z,95.50
2023-02-18T20:24:59.840Z,95.80
2023-02-18T20:27:26.534Z,95.60
2023-02-18T20:29:53.214Z,95.80
2023-02-18T20:32:20.036Z,95.80
2023-02-18T20:34:46.820Z,95.70
2023-02-18T20:37:13.447Z,95.70
2023-02-18T20:39:40.131Z,95.90
2023-02-18T20:42:15.951Z,96.20
2023-02-18T20:44:44.071Z,96.20
2023-02-18T20:47:12.838Z,95.90
2023-02-18T20:49:40.569Z,95.70
2023-02-18T20:52:08.384Z,96.10
2023-02-18T20:54:35.161Z,96.40
2023-02-18T20:57:02.060Z,96.10
2023-02-18T20:59:33.303Z,95.90
2023-02-18T21:02:00.167Z,95.90
2023-02-18T21:04:26.908Z,95.70
2023-02-18T21:06:54.178Z,95.60
2023-02-18T21:09:21.391Z,95.50
2023-02-18T21:11:48.605Z,95.30
2023-02-18T21:14:15.419Z,95.20
2023-02-18T21:16:42.203Z,96.00
2023-02-18T21:19:12.972Z,96.00
2023-02-18T21:21:39.968Z,96.50
2023-02-18T21:24:07.181Z,96.50
2023-02-18T21:26:33.885Z,96.30
2023-02-18T21:29:05.483Z,96.40
2023-02-18T21:31:34.936Z,96.50
2023-02-18T21:34:02.634Z,96.70
2023-02-18T21:36:30.932Z,96.60
2023-02-18T21:39:04.379Z,96.60
2023-02-18T21:41:31.206Z,96.50
2023-02-18T21:43:58.072Z,96.50
2023-02-18T21:46:27.267Z,96.70
2023-02-18T21:49:05.746Z,96.70
2023-02-18T21:51:56.554Z,96.70
2023-02-18T21:54:32.492Z,96.80
2023-02-18T21:57:01.314Z,96.80
2023-02-18T21:59:29.280Z,96.80
2023-02-18T22:01:57.162Z,96.70
2023-02-18T22:04:25.262Z,96.60
2023-02-18T22:06:52.192Z,96.40
2023-02-18T22:09:19.164Z,97.10
2023-02-18T22:11:46.058Z,97.10
2023-02-18T22:14:14.081Z,97.00
2023-02-18T22:16:41.656Z,97.40
2023-02-18T22:19:09.970Z,96.80
2023-02-18T22:21:36.657Z,97.00
2023-02-18T22:24:04.999Z,96.90
2023-02-18T22:26:31.662Z,96.90
2023-02-18T22:28:59.092Z,97.10
2023-02-18T22:31:27.448Z,96.80
2023-02-18T22:33:55.738Z,96.80
2023-02-18T22:36:23.733Z,96.90
2023-02-18T22:38:50.800Z,96.80
2023-02-18T22:41:19.068Z,97.00
2023-02-18T22:43:46.002Z,97.00
2023-02-18T22:46:17.790Z,96.80
2023-02-18T22:48:44.429Z,97.00
2023-02-18T22:51:13.939Z,97.00
2023-02-18T22:53:41.297Z,97.00
2023-02-18T22:56:12.189Z,97.00
2023-02-18T22:58:39.522Z,96.90
2023-02-18T23:01:07.017Z,96.80
2023-02-18T23:03:34.154Z,96.40
2023-02-18T23:06:02.229Z,96.50
2023-02-18T23:08:29.426Z,96.50
2023-02-18T23:11:13.880Z,96.50
2023-02-18T23:13:41.390Z,96.20
2023-02-18T23:16:14.310Z,96.50
2023-02-18T23:18:41.212Z,96.30
2023-02-18T23:21:17.961Z,96.00
2023-02-18T23:23:46.196Z,95.90
2023-02-18T23:26:13.601Z,96.00
2023-02-18T23:28:49.765Z,95.90
2023-02-18T23:31:24.938Z,96.10
2023-02-18T23:34:00.130Z,96.00
2023-02-18T23:36:29.133Z,95.90
2023-02-18T23:39:00.594Z,95.80
2023-02-18T23:41:28.584Z,95.70
2023-02-18T23:43:55.735Z,95.80
2023-02-18T23:46:26.733Z,96.60
2023-02-18T23:48:53.361Z,96.20
2023-02-18T23:51:22.947Z,96.30
2023-02-18T23:53:50.384Z,96.40
2023-02-18T23:56:27.871Z,96.50
2023-02-18T23:58:57.387Z,96.30
